Terminal Aerodrome Forecast
Issued by NWS Cleveland, OH

Home | Current Version | Previous Version | Graphics & Text | Print | Product List | Glossary On
Versions: 1 2 3 4 5 6 7 8 9 10 11 12 13 14 15 16 17 18 19 20 21
000
FTUS41 KCLE 292300
TAFTOL
TAF
KTOL 292327Z 3000/3024 28005KT P6SM SKC
     FM300200 26003KT P6SM SCT100 BKN250
     FM301000 32006KT 4SM -SHRA BR SCT006 OVC015
     FM301200 32006KT 4SM BR OVC007
     FM301400 35006KT P6SM OVC007
     FM301600 34006KT P6SM OVC012
     FM302100 35004KT P6SM OVC050=

USA.gov is the U.S. government's official web portal to all federal, state and local government web resources and services.